Terminal Aerodrome Forecast
Issued by NWS

Home | Current Version | Previous Version | Graphics & Text | Print | Product List | Glossary On
Versions: 1 2 3 4 5 6 7 8 9 10 11 12 13 14 15 16 17 18 19 20 21
199
FTUS43 KMPX 240520
TAFAXN
TAF
KAXN 240520Z 2406/2506 12014G20KT P6SM OVC005
     FM240800 13014KT 4SM BR OVC005
     FM241000 13013KT 2SM BR OVC002
     FM241600 13015G22KT P6SM OVC007
     FM241900 14016G23KT P6SM SCT010 OVC020
     FM242100 14017G25KT P6SM VCSH SCT020 OVC035 PROB30 2500/2506
      3SM TSRA BKN020CB=

USA.gov is the U.S. government's official web portal to all federal, state and local government web resources and services.